createdAt,value
2023-12-21T00:01:35.756Z,13.13
2023-12-21T00:04:06.897Z,12.18
2023-12-21T00:06:36.907Z,13.60
2023-12-21T00:09:07.682Z,12.50
2023-12-21T00:11:35.458Z,11.48
2023-12-21T00:14:03.216Z,11.30
2023-12-21T00:16:51.780Z,11.38
2023-12-21T00:19:19.551Z,9.63
2023-12-21T00:21:47.211Z,7.75
2023-12-21T00:24:14.855Z,7.05
2023-12-21T00:26:42.435Z,8.00
2023-12-21T00:29:10.167Z,8.10
2023-12-21T00:31:37.893Z,6.70
2023-12-21T00:34:05.714Z,8.10
2023-12-21T00:36:34.636Z,9.23
2023-12-21T00:39:02.228Z,7.82
2023-12-21T00:41:29.797Z,8.32
2023-12-21T00:43:57.755Z,8.77
2023-12-21T00:46:27.560Z,8.80
2023-12-21T00:48:55.444Z,7.57
2023-12-21T00:51:23.116Z,7.93
2023-12-21T00:53:50.662Z,7.40
2023-12-21T00:56:18.676Z,7.97
2023-12-21T00:58:46.482Z,8.45
2023-12-21T01:01:14.159Z,9.52
2023-12-21T01:03:41.872Z,8.27
2023-12-21T01:06:13.745Z,8.38
2023-12-21T01:08:41.387Z,9.38
2023-12-21T01:11:08.977Z,8.40
2023-12-21T01:13:36.647Z,8.68
2023-12-21T01:16:06.904Z,9.93
2023-12-21T01:18:35.200Z,7.63
2023-12-21T01:21:02.825Z,9.02
2023-12-21T01:23:30.427Z,8.35
2023-12-21T01:25:58.271Z,8.27
2023-12-21T01:28:25.910Z,9.27
2023-12-21T01:30:53.589Z,8.68
2023-12-21T01:33:23.729Z,8.98
2023-12-21T01:35:55.374Z,8.70
2023-12-21T01:38:23.018Z,8.15
2023-12-21T01:40:50.763Z,7.93
2023-12-21T01:43:18.460Z,8.55
2023-12-21T01:46:25.298Z,8.85
2023-12-21T01:48:53.738Z,6.53
2023-12-21T01:51:21.996Z,7.65
2023-12-21T01:53:51.844Z,7.95
2023-12-21T01:56:21.516Z,8.40
2023-12-21T01:58:52.975Z,6.65
2023-12-21T02:01:21.140Z,6.40
2023-12-21T02:03:48.989Z,6.28
2023-12-21T02:06:16.913Z,7.13
2023-12-21T02:08:45.628Z,6.70
2023-12-21T02:11:13.631Z,6.43
2023-12-21T02:13:41.341Z,6.03
2023-12-21T02:16:36.094Z,8.23
2023-12-21T02:19:05.503Z,8.25
2023-12-21T02:21:36.848Z,8.15
2023-12-21T02:24:11.529Z,6.93
2023-12-21T02:26:40.543Z,7.88
2023-12-21T02:29:08.297Z,7.68
2023-12-21T02:31:37.257Z,7.50
2023-12-21T02:34:07.616Z,7.75
2023-12-21T02:36:35.847Z,7.43
2023-12-21T02:39:03.486Z,7.05
2023-12-21T02:41:31.045Z,7.22
2023-12-21T02:43:58.661Z,7.32
2023-12-21T02:46:28.539Z,7.15
2023-12-21T02:48:56.332Z,7.00
2023-12-21T02:51:24.578Z,7.00
2023-12-21T02:53:52.227Z,7.35
2023-12-21T02:56:25.871Z,6.35
2023-12-21T02:58:53.616Z,7.07
2023-12-21T03:01:21.370Z,5.97
2023-12-21T03:03:49.290Z,6.35
2023-12-21T03:06:19.036Z,6.93
2023-12-21T03:08:48.027Z,6.65
2023-12-21T03:11:15.669Z,6.38
2023-12-21T03:13:43.436Z,6.55
2023-12-21T03:16:13.830Z,5.80
2023-12-21T03:18:41.559Z,6.47
2023-12-21T03:21:11.077Z,6.97
2023-12-21T03:23:40.925Z,7.10
2023-12-21T03:26:12.323Z,6.38
2023-12-21T03:28:46.166Z,6.63
2023-12-21T03:31:16.950Z,6.55
2023-12-21T03:33:45.065Z,5.75
2023-12-21T03:36:15.093Z,6.63
2023-12-21T03:38:42.633Z,5.88
2023-12-21T03:41:10.306Z,5.45
2023-12-21T03:43:39.123Z,5.13
2023-12-21T03:46:44.554Z,5.95
2023-12-21T03:49:12.445Z,6.97
2023-12-21T03:51:42.812Z,7.60
2023-12-21T03:54:10.508Z,6.05
2023-12-21T03:56:42.434Z,7.88
2023-12-21T03:59:12.543Z,8.38
2023-12-21T04:01:40.321Z,7.70
2023-12-21T04:04:08.166Z,6.97
2023-12-21T04:06:36.451Z,6.90
2023-12-21T04:09:05.044Z,6.95
2023-12-21T04:11:32.853Z,8.20
2023-12-21T04:14:00.506Z,7.00
2023-12-21T04:17:07.650Z,7.18
2023-12-21T04:19:36.323Z,6.97
2023-12-21T04:22:07.285Z,7.55
2023-12-21T04:24:34.885Z,6.45
2023-12-21T04:27:02.527Z,6.82
2023-12-21T04:29:30.125Z,6.60
2023-12-21T04:31:57.749Z,5.93
2023-12-21T04:34:25.453Z,6.28
2023-12-21T04:36:53.070Z,7.45
2023-12-21T04:39:21.325Z,6.15
2023-12-21T04:41:48.892Z,6.63
2023-12-21T04:44:17.554Z,6.43
2023-12-21T04:46:49.308Z,6.20
2023-12-21T04:49:18.442Z,6.90
2023-12-21T04:51:47.464Z,5.93
2023-12-21T04:54:17.881Z,5.53
2023-12-21T04:57:24.367Z,6.32
2023-12-21T04:59:52.446Z,5.45
2023-12-21T05:02:20.168Z,5.50
2023-12-21T05:04:48.023Z,5.85
2023-12-21T05:07:19.527Z,6.00
2023-12-21T05:09:47.281Z,5.57
2023-12-21T05:12:14.816Z,5.68
2023-12-21T05:14:42.741Z,5.20
2023-12-21T05:17:10.778Z,5.53
2023-12-21T05:19:39.294Z,5.32
2023-12-21T05:22:06.922Z,4.57
2023-12-21T05:24:34.604Z,6.57
2023-12-21T05:27:04.883Z,6.45
2023-12-21T05:29:33.677Z,5.80
2023-12-21T05:32:01.354Z,5.75
2023-12-21T05:34:29.766Z,6.10
2023-12-21T05:37:00.708Z,6.07
2023-12-21T05:39:28.435Z,7.32
2023-12-21T05:41:55.991Z,6.38
2023-12-21T05:44:23.524Z,6.38
2023-12-21T05:46:53.543Z,6.13
2023-12-21T05:49:21.494Z,5.75
2023-12-21T05:51:49.729Z,6.20
2023-12-21T05:54:17.351Z,6.43
2023-12-21T05:56:46.198Z,5.85
2023-12-21T05:59:14.041Z,6.35
2023-12-21T06:01:43.002Z,5.60
2023-12-21T06:04:10.833Z,6.80
2023-12-21T06:07:17.977Z,5.68
2023-12-21T06:09:45.792Z,5.13
2023-12-21T06:12:13.322Z,5.13
2023-12-21T06:14:41.144Z,4.95
2023-12-21T06:17:12.426Z,4.35
2023-12-21T06:19:41.382Z,4.63
2023-12-21T06:22:09.729Z,4.18
2023-12-21T06:24:37.354Z,5.00
2023-12-21T06:27:05.330Z,5.28
2023-12-21T06:29:33.139Z,5.22
2023-12-21T06:32:00.807Z,5.68
2023-12-21T06:34:29.400Z,5.50
2023-12-21T06:36:58.262Z,5.80
2023-12-21T06:39:28.219Z,5.68
2023-12-21T06:41:55.875Z,5.97
2023-12-21T06:44:23.512Z,5.72
2023-12-21T06:46:52.393Z,5.10
2023-12-21T06:49:20.347Z,4.88
2023-12-21T06:51:48.184Z,4.63
2023-12-21T06:54:15.872Z,5.35
2023-12-21T06:56:43.461Z,4.32
2023-12-21T06:59:10.976Z,5.07
2023-12-21T07:01:38.952Z,5.32
2023-12-21T07:04:06.584Z,5.90
2023-12-21T07:06:39.471Z,5.25
2023-12-21T07:09:07.659Z,5.47
2023-12-21T07:11:35.179Z,5.80
2023-12-21T07:14:02.649Z,5.65
2023-12-21T07:16:30.295Z,6.70
2023-12-21T07:18:57.956Z,5.65
2023-12-21T07:21:25.549Z,5.85
2023-12-21T07:23:53.060Z,6.70
2023-12-21T07:26:25.426Z,5.20
2023-12-21T07:28:52.960Z,6.30
2023-12-21T07:31:20.833Z,7.15
2023-12-21T07:33:48.762Z,7.15
2023-12-21T07:36:16.799Z,7.82
2023-12-21T07:38:44.731Z,8.18
2023-12-21T07:41:12.392Z,10.20
2023-12-21T07:43:40.621Z,10.73
2023-12-21T07:46:26.956Z,9.52
2023-12-21T07:48:54.843Z,7.93
2023-12-21T07:51:22.429Z,8.20
2023-12-21T07:53:49.893Z,8.75
2023-12-21T07:56:21.842Z,7.13
2023-12-21T07:58:53.077Z,8.70
2023-12-21T09:54:00.980Z,5.03
2023-12-21T09:56:35.145Z,4.18
2023-12-21T09:59:06.132Z,3.97
2023-12-21T10:01:34.086Z,4.75
2023-12-21T10:04:01.862Z,4.10
2023-12-21T10:06:29.772Z,4.35
2023-12-21T10:08:57.388Z,6.20
2023-12-21T10:11:29.343Z,8.27
2023-12-21T10:14:02.811Z,8.25
2023-12-21T10:16:32.506Z,5.80
2023-12-21T10:19:03.270Z,6.45
2023-12-21T10:21:53.594Z,5.60
2023-12-21T10:24:21.723Z,6.47
2023-12-21T10:26:53.908Z,5.88
2023-12-21T10:29:21.653Z,6.50
2023-12-21T10:31:50.619Z,5.78
2023-12-21T10:34:19.400Z,6.70
2023-12-21T10:36:47.741Z,6.75
2023-12-21T10:39:16.684Z,6.90
2023-12-21T10:41:47.616Z,6.53
2023-12-21T10:44:32.307Z,6.72
2023-12-21T10:47:02.417Z,6.47
2023-12-21T10:49:30.204Z,5.60
2023-12-21T10:51:59.994Z,5.80
2023-12-21T10:54:29.594Z,7.32
2023-12-21T10:56:59.735Z,7.65
2023-12-21T10:59:32.660Z,9.20
2023-12-21T11:02:05.945Z,8.40
2023-12-21T11:04:35.774Z,8.13
2023-12-21T11:07:06.763Z,7.25
2023-12-21T11:09:35.468Z,9.35
2023-12-21T11:12:04.041Z,8.20
2023-12-21T11:14:34.289Z,8.90
2023-12-21T11:17:03.193Z,9.57
2023-12-21T11:19:39.748Z,9.35
2023-12-21T11:22:08.383Z,9.48
2023-12-21T11:24:36.005Z,7.95
2023-12-21T11:27:04.435Z,8.10
2023-12-21T11:29:31.944Z,8.45
2023-12-21T11:32:01.789Z,8.55
2023-12-21T11:34:42.767Z,8.35
2023-12-21T11:37:18.660Z,8.45
2023-12-21T11:39:48.385Z,8.65
2023-12-21T11:42:20.202Z,26.63
2023-12-21T11:44:55.280Z,11.70
2023-12-21T11:47:26.876Z,8.82
2023-12-21T11:50:11.318Z,10.10
2023-12-21T11:52:39.536Z,9.15
2023-12-21T11:55:10.922Z,9.88
2023-12-21T11:57:42.788Z,6.82
2023-12-21T12:00:22.223Z,7.60
2023-12-21T12:02:52.828Z,7.70
2023-12-21T12:05:24.689Z,6.38
2023-12-21T12:07:53.528Z,6.53
2023-12-21T12:10:23.787Z,6.20
2023-12-21T12:12:53.734Z,6.65
2023-12-21T12:15:21.564Z,6.28
2023-12-21T12:17:49.545Z,5.63
2023-12-21T12:20:17.292Z,5.70
2023-12-21T12:22:44.986Z,5.80
2023-12-21T12:25:17.477Z,5.65
2023-12-21T12:27:46.201Z,5.20
2023-12-21T12:30:15.044Z,4.97
2023-12-21T12:32:44.218Z,6.28
2023-12-21T12:35:12.669Z,6.22
2023-12-21T12:37:40.997Z,6.00
2023-12-21T12:40:09.223Z,5.90
2023-12-21T12:42:37.140Z,6.10
2023-12-21T12:45:07.173Z,5.57
2023-12-21T12:47:36.265Z,5.63
2023-12-21T12:50:04.856Z,5.45
2023-12-21T12:52:32.899Z,6.57
2023-12-21T12:55:03.286Z,5.68
2023-12-21T12:57:31.733Z,5.65
2023-12-21T13:00:00.542Z,6.03
2023-12-21T13:02:30.520Z,5.57
2023-12-21T13:05:02.130Z,6.45
2023-12-21T13:07:30.112Z,6.47
2023-12-21T13:10:08.871Z,6.18
2023-12-21T13:12:38.445Z,6.28
2023-12-21T13:15:08.818Z,7.05
2023-12-21T13:17:36.590Z,6.88
2023-12-21T13:20:10.798Z,7.72
2023-12-21T13:22:39.177Z,7.07
2023-12-21T13:25:09.988Z,9.88
2023-12-21T13:27:37.804Z,13.60
2023-12-21T13:30:05.945Z,13.50
2023-12-21T13:32:33.677Z,12.38
2023-12-21T13:35:01.859Z,13.77
2023-12-21T13:37:30.003Z,12.93
2023-12-21T13:39:57.555Z,13.32
2023-12-21T13:42:25.567Z,13.95
2023-12-21T13:44:53.080Z,16.52
2023-12-21T13:47:21.489Z,16.20
2023-12-21T13:49:49.506Z,17.42
2023-12-21T13:52:17.083Z,17.50
2023-12-21T13:54:44.716Z,17.50
2023-12-21T13:57:15.792Z,17.13
2023-12-21T13:59:43.426Z,16.42
2023-12-21T14:02:11.180Z,17.10
2023-12-21T14:04:39.456Z,16.35
2023-12-21T14:07:07.377Z,16.70
2023-12-21T14:09:38.609Z,15.98
2023-12-21T14:12:06.881Z,16.17
2023-12-21T14:14:34.931Z,15.65
2023-12-21T14:17:08.330Z,16.30
2023-12-21T14:19:38.491Z,15.68
2023-12-21T14:22:06.349Z,16.75
2023-12-21T14:24:33.877Z,15.98
2023-12-21T14:27:02.074Z,16.00
2023-12-21T14:29:32.860Z,15.85
2023-12-21T14:32:00.613Z,15.65
2023-12-21T14:34:28.565Z,17.58
2023-12-21T14:36:56.185Z,15.63
2023-12-21T14:39:23.663Z,16.40
2023-12-21T14:41:51.633Z,16.23
2023-12-21T14:44:19.178Z,17.33
2023-12-21T14:46:49.161Z,16.73
2023-12-21T14:49:27.781Z,16.67
2023-12-21T14:51:55.995Z,17.63
2023-12-21T14:54:26.297Z,19.15
2023-12-21T14:56:54.190Z,17.83
2023-12-21T14:59:37.218Z,17.08
2023-12-21T15:02:04.831Z,17.98
2023-12-21T15:04:32.533Z,17.50
2023-12-21T15:07:00.639Z,17.40
2023-12-21T15:09:28.470Z,18.30
2023-12-21T15:11:56.001Z,15.98
2023-12-21T15:14:26.163Z,16.05
2023-12-21T15:16:54.348Z,18.30
2023-12-21T15:19:22.230Z,16.98
2023-12-21T15:21:50.670Z,18.67
2023-12-21T15:24:18.130Z,16.90
2023-12-21T15:26:45.777Z,16.65
2023-12-21T15:29:13.352Z,17.55
2023-12-21T15:31:43.798Z,16.83
2023-12-21T15:34:14.310Z,16.40
2023-12-21T15:36:48.273Z,18.38
2023-12-21T15:39:19.115Z,18.23
2023-12-21T15:41:47.555Z,20.38
2023-12-21T15:44:15.196Z,19.13
2023-12-21T15:46:42.766Z,18.13
2023-12-21T15:49:11.084Z,21.52
2023-12-21T15:51:39.179Z,21.15
2023-12-21T15:54:12.224Z,19.40
2023-12-21T15:56:42.976Z,20.45
2023-12-21T15:59:11.012Z,21.92
2023-12-21T16:01:44.869Z,21.50
2023-12-21T16:04:15.472Z,20.75
2023-12-21T16:06:46.190Z,24.15
2023-12-21T16:09:13.845Z,22.98
2023-12-21T16:11:44.077Z,24.50
2023-12-21T16:14:11.573Z,24.13
2023-12-21T16:16:39.114Z,25.33
2023-12-21T16:19:06.726Z,25.70
2023-12-21T16:21:34.350Z,27.83
2023-12-21T16:24:01.950Z,28.45
2023-12-21T16:26:29.927Z,27.80
2023-12-21T16:29:00.757Z,29.65
2023-12-21T16:31:30.416Z,32.50
2023-12-21T16:33:58.412Z,33.00
2023-12-21T16:36:26.125Z,39.38
2023-12-21T16:39:02.556Z,37.03
2023-12-21T16:41:30.223Z,34.05
2023-12-21T16:43:58.137Z,33.08
2023-12-21T16:46:28.734Z,31.55
2023-12-21T16:48:59.833Z,31.23
2023-12-21T16:51:27.346Z,30.15
2023-12-21T16:53:54.960Z,30.38
2023-12-21T16:56:23.152Z,31.70
2023-12-21T16:58:50.802Z,40.55
2023-12-21T17:01:21.818Z,33.97
2023-12-21T17:03:52.424Z,33.10
2023-12-21T17:06:20.939Z,34.92
2023-12-21T17:08:48.637Z,31.13
2023-12-21T17:11:16.388Z,31.83
2023-12-21T17:13:44.068Z,32.75
2023-12-21T17:16:11.964Z,32.78
2023-12-21T17:18:40.320Z,33.50
2023-12-21T17:21:07.984Z,34.92
2023-12-21T17:23:35.448Z,33.05
2023-12-21T17:26:03.194Z,32.38
2023-12-21T17:28:31.320Z,33.15
2023-12-21T17:30:58.817Z,27.77
2023-12-21T17:33:26.440Z,28.67
2023-12-21T17:35:54.701Z,28.25
2023-12-21T17:38:22.547Z,33.63
2023-12-21T17:40:52.263Z,33.22
2023-12-21T17:43:20.511Z,31.63
2023-12-21T17:45:48.130Z,32.03
2023-12-21T17:48:15.781Z,33.13
2023-12-21T17:50:43.428Z,32.80
2023-12-21T17:53:13.749Z,33.90
2023-12-21T17:55:42.053Z,32.05
2023-12-21T17:58:09.782Z,32.80
2023-12-21T18:00:38.435Z,34.13
2023-12-21T18:03:06.033Z,33.05
2023-12-21T18:05:33.505Z,33.13
2023-12-21T18:08:01.247Z,35.83
2023-12-21T18:10:30.036Z,33.35
2023-12-21T18:12:57.660Z,35.45
2023-12-21T18:15:25.453Z,36.88
2023-12-21T18:17:53.160Z,36.78
2023-12-21T18:20:23.944Z,39.25
2023-12-21T18:22:52.003Z,39.28
2023-12-21T18:25:20.079Z,47.00
2023-12-21T18:27:48.128Z,49.67
2023-12-21T18:30:16.232Z,48.15
2023-12-21T18:32:43.801Z,49.60
2023-12-21T18:35:11.668Z,54.97
2023-12-21T18:37:39.246Z,52.67
2023-12-21T18:40:07.829Z,53.72
2023-12-21T18:42:35.503Z,55.65
2023-12-21T18:45:03.209Z,52.75
2023-12-21T18:47:30.811Z,55.15
2023-12-21T18:49:58.721Z,52.28
2023-12-21T18:52:26.400Z,53.15
2023-12-21T18:54:53.944Z,54.38
2023-12-21T18:57:21.850Z,53.97
2023-12-21T18:59:49.859Z,48.97
2023-12-21T19:02:17.401Z,48.58
2023-12-21T19:04:45.312Z,46.25
2023-12-21T19:07:13.419Z,46.13
2023-12-21T19:09:41.698Z,48.08
2023-12-21T19:12:10.034Z,49.33
2023-12-21T19:14:46.213Z,52.30
2023-12-21T19:17:13.740Z,49.42
2023-12-21T19:19:41.369Z,50.08
2023-12-21T19:22:09.678Z,48.97
2023-12-21T19:24:38.466Z,51.33
2023-12-21T19:27:06.041Z,48.28
2023-12-21T19:29:33.571Z,46.10
2023-12-21T19:32:01.215Z,45.90
2023-12-21T19:34:28.819Z,43.40
2023-12-21T19:36:59.736Z,43.30
2023-12-21T19:39:29.898Z,43.42
2023-12-21T19:41:57.765Z,41.15
2023-12-21T19:44:25.324Z,41.00
2023-12-21T19:46:52.890Z,41.65
2023-12-21T19:49:20.576Z,40.67
2023-12-21T19:51:48.646Z,38.10
2023-12-21T19:54:16.144Z,41.30
2023-12-21T19:56:46.326Z,38.05
2023-12-21T19:59:20.075Z,36.40
2023-12-21T20:01:51.295Z,35.25
2023-12-21T20:04:19.372Z,33.70
2023-12-21T20:06:49.511Z,37.72
2023-12-21T20:09:17.302Z,39.83
2023-12-21T20:11:47.752Z,38.40
2023-12-21T20:14:15.338Z,37.55
2023-12-21T20:16:43.983Z,37.63
2023-12-21T20:19:11.804Z,37.60
2023-12-21T20:21:39.426Z,36.70
2023-12-21T20:24:07.520Z,38.13
2023-12-21T20:26:35.091Z,38.13
2023-12-21T20:29:02.628Z,37.10
2023-12-21T20:31:31.364Z,36.97
2023-12-21T20:33:58.921Z,37.78
2023-12-21T20:36:26.876Z,36.47
2023-12-21T20:38:54.744Z,36.95
2023-12-21T20:41:25.058Z,36.58
2023-12-21T20:43:52.694Z,34.00
2023-12-21T20:46:20.463Z,38.00
2023-12-21T20:48:48.163Z,35.28
2023-12-21T20:51:15.866Z,37.70
2023-12-21T20:53:46.057Z,38.22
2023-12-21T20:56:13.809Z,38.25
2023-12-21T20:58:41.709Z,41.75
2023-12-21T21:01:09.550Z,40.60
2023-12-21T21:03:40.317Z,38.85
2023-12-21T21:06:08.092Z,38.67
2023-12-21T21:08:35.670Z,40.67
2023-12-21T21:11:05.421Z,36.70
2023-12-21T21:13:33.302Z,40.83
2023-12-21T21:16:00.928Z,37.05
2023-12-21T21:18:28.922Z,37.05
2023-12-21T21:20:56.516Z,36.80
2023-12-21T21:23:29.773Z,37.03
2023-12-21T21:25:59.128Z,37.20
2023-12-21T21:28:27.008Z,40.42
2023-12-21T21:30:59.833Z,39.50
2023-12-21T21:33:29.026Z,40.33
2023-12-21T21:35:56.680Z,38.95
2023-12-21T21:38:24.200Z,39.15
2023-12-21T21:40:59.741Z,40.13
2023-12-21T21:43:34.035Z,39.22
2023-12-21T21:48:43.756Z,38.72
2023-12-21T21:51:15.183Z,39.08
2023-12-21T21:53:45.029Z,38.25
2023-12-21T21:56:12.853Z,37.28
2023-12-21T21:58:40.640Z,37.95
2023-12-21T22:01:08.374Z,36.72
2023-12-21T22:03:36.048Z,37.38
2023-12-21T22:06:04.982Z,39.13
2023-12-21T22:08:32.919Z,38.25
2023-12-21T22:11:03.609Z,45.72
2023-12-21T22:13:31.637Z,45.38
2023-12-21T22:15:59.175Z,42.67
2023-12-21T22:18:27.084Z,43.13
2023-12-21T22:20:54.630Z,44.80
2023-12-21T22:23:24.238Z,43.67
2023-12-21T22:25:52.141Z,41.97
2023-12-21T22:28:19.891Z,41.15
2023-12-21T22:30:47.538Z,41.30
2023-12-21T22:33:16.107Z,42.58
2023-12-21T22:35:43.724Z,42.40
2023-12-21T22:38:11.748Z,41.80
2023-12-21T22:40:39.916Z,39.85
2023-12-21T22:43:07.430Z,39.05
2023-12-21T22:45:35.107Z,40.20
2023-12-21T22:48:02.826Z,40.88
2023-12-21T22:50:33.284Z,39.35
2023-12-21T22:53:04.018Z,39.47
2023-12-21T22:55:31.560Z,40.25
2023-12-21T22:57:59.033Z,38.42
2023-12-21T23:00:27.290Z,38.88
2023-12-21T23:02:55.304Z,38.10
2023-12-21T23:05:23.040Z,38.28
2023-12-21T23:07:50.987Z,37.38
2023-12-21T23:10:18.853Z,35.75
2023-12-21T23:12:48.251Z,38.97
2023-12-21T23:15:16.070Z,37.55
2023-12-21T23:17:47.548Z,36.75
2023-12-21T23:20:33.938Z,36.00
2023-12-21T23:23:01.832Z,37.60
2023-12-21T23:25:29.381Z,37.03
2023-12-21T23:27:56.908Z,37.10
2023-12-21T23:30:24.483Z,41.33
2023-12-21T23:32:52.536Z,37.10
2023-12-21T23:35:23.606Z,43.65
2023-12-21T23:37:52.207Z,40.38
2023-12-21T23:40:23.216Z,38.28
2023-12-21T23:42:51.183Z,37.75
2023-12-21T23:45:19.051Z,37.42
2023-12-21T23:47:47.056Z,38.38
2023-12-21T23:50:14.812Z,38.53
2023-12-21T23:52:43.706Z,39.47
2023-12-21T23:55:11.217Z,37.88
2023-12-21T23:57:38.805Z,39.42
